Time;durP1;ratioP1;P1;durP2;ratioP2;P2;SDS_P1;SDS_P2;PMS_P1;PMS_P2;Temp;Humidity;BMP_temperature;BMP_pressure;BME280_temperature;BME280_humidity;BME280_pressure;Samples;Min_cycle;Max_cycle;Signal;HPM_P1;HPM_P2
2023/12/21 00:01:20;;;;;;;2.40;0.40;;;;;;;4.50;91.66;99269.05;111366;1260;22100;-73
2023/12/21 00:04:11;;;;;;;3.30;0.40;;;;;;;4.48;91.77;99264.11;111414;1257;22207;-74
2023/12/21 00:07:00;;;;;;;;;;;;;;;4.46;91.93;99255.73;111372;1260;22320;-74
2023/12/21 00:09:51;;;;;;;5.00;0.50;;;;;;;4.45;92.18;99253.39;111370;1267;22097;-74
2023/12/21 00:12:42;;;;;;;2.40;0.40;;;;;;;4.45;92.22;99248.14;111385;1263;22144;-73
2023/12/21 00:15:33;;;;;;;1.10;0.20;;;;;;;4.44;92.39;99247.30;111382;1263;22123;-72
2023/12/21 00:18:24;;;;;;;2.60;0.30;;;;;;;4.41;92.38;99246.08;111413;1268;22107;-74
2023/12/21 00:21:14;;;;;;;1.20;0.20;;;;;;;4.42;92.54;99237.67;111394;1266;22156;-73
2023/12/21 00:24:04;;;;;;;;;;;;;;;4.42;92.70;99233.10;111407;1268;22379;-74
2023/12/21 00:26:54;;;;;;;2.90;0.40;;;;;;;4.41;92.89;99232.05;111411;1260;22203;-72
2023/12/21 00:29:45;;;;;;;4.00;0.40;;;;;;;4.40;92.88;99228.43;111410;1268;23032;-73
2023/12/21 00:32:35;;;;;;;1.50;0.30;;;;;;;4.42;93.10;99219.74;111437;1260;22817;-72
2023/12/21 00:35:26;;;;;;;3.10;0.50;;;;;;;4.43;93.12;99219.36;111400;1260;22406;-74
2023/12/21 00:38:15;;;;;;;;;;;;;;;4.43;93.14;99217.40;111416;1263;22453;-72
2023/12/21 00:41:06;;;;;;;1.90;0.30;;;;;;;4.43;93.20;99207.50;111384;1268;22209;-76
2023/12/21 00:43:57;;;;;;;4.60;0.50;;;;;;;4.45;93.41;99202.23;111387;1268;22130;-74
2023/12/21 00:46:48;;;;;;;4.90;0.40;;;;;;;4.47;93.47;99194.29;111383;1268;22162;-74
2023/12/21 00:49:37;;;;;;;;;;;;;;;4.48;93.58;99186.15;111426;1268;22229;-73
2023/12/21 00:52:28;;;;;;;3.50;0.40;;;;;;;4.49;93.66;99182.54;111401;1268;22144;-73
2023/12/21 00:55:19;;;;;;;4.40;0.70;;;;;;;4.51;93.82;99170.77;111396;1260;22765;-73
2023/12/21 00:58:09;;;;;;;4.40;0.60;;;;;;;4.48;93.83;99172.90;111387;1266;22209;-75
2023/12/21 01:00:58;;;;;;;;;;;;;;;4.48;94.01;99161.70;111412;1266;22377;-72
2023/12/21 01:03:49;;;;;;;7.20;0.90;;;;;;;4.47;94.15;99157.36;111371;1268;22171;-72
2023/12/21 01:06:42;;;;;;;6.50;1.00;;;;;;;4.48;94.41;99155.06;111403;1264;22404;-74
2023/12/21 01:09:32;;;;;;;4.00;0.70;;;;;;;4.48;94.41;99145.17;111441;1268;22417;-72
2023/12/21 01:12:23;;;;;;;2.50;0.70;;;;;;;4.49;94.53;99138.58;111490;1265;23027;-72
2023/12/21 01:15:14;;;;;;;7.80;0.90;;;;;;;4.46;94.67;99133.98;111598;1260;22176;-74
2023/12/21 01:18:05;;;;;;;6.40;0.80;;;;;;;4.44;94.63;99133.67;111477;1267;22210;-72
2023/12/21 01:20:56;;;;;;;5.50;0.80;;;;;;;4.46;94.80;99131.70;111372;1257;22323;-74
2023/12/21 01:23:47;;;;;;;7.60;1.30;;;;;;;4.48;94.93;99131.40;111383;1263;22396;-72
2023/12/21 01:26:38;;;;;;;5.40;0.80;;;;;;;4.47;94.90;99125.00;111367;1260;22199;-74
2023/12/21 01:29:29;;;;;;;5.30;0.90;;;;;;;4.48;95.04;99117.32;111367;1259;22425;-73
2023/12/21 01:32:19;;;;;;;5.30;0.90;;;;;;;4.49;95.05;99114.03;111402;1263;22343;-74
2023/12/21 01:35:10;;;;;;;4.80;1.00;;;;;;;4.46;95.02;99107.39;111527;1261;22956;-74
2023/12/21 01:38:01;;;;;;;6.00;0.90;;;;;;;4.46;95.32;99099.55;111394;1268;22144;-73
2023/12/21 01:40:52;;;;;;;7.00;1.10;;;;;;;4.46;95.29;99089.45;111222;1268;22285;-76
2023/12/21 01:43:42;;;;;;;5.70;1.10;;;;;;;4.46;95.39;99080.92;111386;1268;22148;-73
2023/12/21 01:46:35;;;;;;;6.30;0.90;;;;;;;4.45;95.53;99069.54;111416;1268;22152;-73
2023/12/21 01:49:26;;;;;;;4.70;0.90;;;;;;;4.45;95.57;99061.34;111400;1268;22120;-74
2023/12/21 01:52:17;;;;;;;6.30;1.10;;;;;;;4.43;95.48;99060.35;111365;1268;23122;-74
2023/12/21 01:55:12;;;;;;;8.80;1.60;;;;;;;4.44;95.61;99052.46;111428;1266;22119;-72
2023/12/21 01:58:03;;;;;;;5.90;1.10;;;;;;;4.44;95.75;99045.86;111362;1266;22996;-73
2023/12/21 02:00:56;;;;;;;6.50;1.00;;;;;;;4.44;95.82;99028.70;111410;1267;22141;-73
2023/12/21 02:03:47;;;;;;;6.40;0.90;;;;;;;4.42;95.83;99016.30;111398;1257;22805;-72
2023/12/21 02:06:38;;;;;;;4.10;0.90;;;;;;;4.42;95.87;99012.13;111401;1263;22099;-73
2023/12/21 02:09:28;;;;;;;7.10;1.00;;;;;;;4.43;96.08;99005.63;111479;1266;22341;-72
2023/12/21 02:12:19;;;;;;;4.10;0.80;;;;;;;4.45;96.05;98994.92;111473;1267;22289;-73
2023/12/21 02:15:12;;;;;;;6.40;1.00;;;;;;;4.45;96.02;98984.72;111374;1263;22336;-76
2023/12/21 02:18:06;;;;;;;5.10;0.70;;;;;;;4.45;96.03;98975.72;111384;1266;22146;-73
2023/12/21 02:20:58;;;;;;;5.90;0.60;;;;;;;4.46;96.20;98959.08;111392;1258;22106;-74
2023/12/21 02:23:49;;;;;;;3.30;0.60;;;;;;;4.48;96.22;98950.63;111367;1267;22808;-75
2023/12/21 02:26:40;;;;;;;2.80;0.40;;;;;;;4.49;96.17;98943.21;111396;1265;22159;-74
2023/12/21 02:29:31;;;;;;;3.70;0.60;;;;;;;4.50;96.25;98935.69;111398;1260;22364;-73
2023/12/21 02:32:20;;;;;;;;;;;;;;;4.52;96.32;98929.51;111574;1260;22834;-74
2023/12/21 02:35:11;;;;;;;3.00;0.40;;;;;;;4.52;96.50;98915.65;111373;1260;22301;-75
2023/12/21 02:38:01;;;;;;;3.20;0.40;;;;;;;4.53;96.52;98903.00;111424;1268;22287;-72
2023/12/21 02:40:52;;;;;;;2.90;0.30;;;;;;;4.54;96.34;98893.16;111375;1268;22184;-72
2023/12/21 02:43:43;;;;;;;3.90;0.40;;;;;;;4.57;96.53;98887.65;111349;1268;22198;-72
2023/12/21 02:46:33;;;;;;;1.00;0.20;;;;;;;4.58;96.47;98879.08;111451;1268;22147;-73
2023/12/21 02:49:24;;;;;;;1.80;0.30;;;;;;;4.60;96.47;98869.88;111418;1265;22126;-73
2023/12/21 02:52:15;;;;;;;2.70;0.40;;;;;;;4.62;96.42;98861.73;111408;1265;22144;-72
2023/12/21 02:55:07;;;;;;;1.70;0.20;;;;;;;4.64;96.46;98850.73;111372;1266;22208;-74
2023/12/21 02:57:58;;;;;;;1.40;0.30;;;;;;;4.65;96.44;98846.88;111398;1266;22820;-75
2023/12/21 03:00:49;;;;;;;1.50;0.20;;;;;;;4.68;96.47;98843.50;111423;1263;22378;-73
2023/12/21 03:03:39;;;;;;;2.00;0.40;;;;;;;4.70;96.51;98831.31;111389;1263;144759;-74
2023/12/21 03:06:30;;;;;;;3.00;0.40;;;;;;;4.70;96.65;98829.97;111407;1265;22905;-75
2023/12/21 03:09:20;;;;;;;4.30;0.60;;;;;;;4.71;96.55;98824.77;111385;1268;22158;-73
2023/12/21 03:12:11;;;;;;;1.80;0.30;;;;;;;4.72;96.63;98815.70;111421;1256;22331;-75
2023/12/21 03:15:03;;;;;;;1.60;0.20;;;;;;;4.74;96.64;98808.73;111456;1263;22137;-74
2023/12/21 03:17:54;;;;;;;1.40;0.20;;;;;;;4.74;96.68;98800.96;111334;1263;22109;-76
2023/12/21 03:20:45;;;;;;;1.60;0.30;;;;;;;4.76;96.60;98795.14;111345;1265;22165;-73
2023/12/21 03:23:35;;;;;;;;;;;;;;;4.76;96.60;98793.59;111401;1268;22297;-74
2023/12/21 03:26:26;;;;;;;1.30;0.20;;;;;;;4.75;96.62;98786.30;111394;1267;22161;-74
2023/12/21 03:29:18;;;;;;;1.40;0.30;;;;;;;4.76;96.82;98776.56;111358;1260;23436;-75
2023/12/21 03:32:09;;;;;;;1.20;0.20;;;;;;;4.75;96.93;98775.09;111357;1267;22146;-74
2023/12/21 03:34:59;;;;;;;0.80;0.20;;;;;;;4.75;96.87;98767.05;111368;1268;23284;-73
2023/12/21 03:37:50;;;;;;;1.20;0.20;;;;;;;4.76;96.88;98758.91;111339;1268;23039;-75
2023/12/21 03:40:39;;;;;;;;;;;;;;;4.76;97.04;98748.96;111449;1268;22209;-74
2023/12/21 03:43:30;;;;;;;0.80;0.10;;;;;;;4.75;96.99;98742.27;111430;1266;22967;-73
2023/12/21 03:46:20;;;;;;;2.70;0.30;;;;;;;4.75;97.04;98734.46;111400;1268;22897;-73
2023/12/21 03:49:11;;;;;;;2.80;0.10;;;;;;;4.75;97.24;98723.15;111385;1265;22236;-73
2023/12/21 03:52:00;;;;;;;;;;;;;;;4.74;97.10;98716.15;111416;1266;22447;-74
2023/12/21 03:54:51;;;;;;;1.50;0.20;;;;;;;4.74;97.22;98715.45;111395;1266;22152;-73
2023/12/21 03:57:42;;;;;;;1.30;0.20;;;;;;;4.74;97.23;98707.96;111405;1267;22339;-73
2023/12/21 04:00:33;;;;;;;2.80;0.20;;;;;;;4.74;97.21;98707.71;111404;1268;22207;-73
2023/12/21 04:03:24;;;;;;;0.70;0.10;;;;;;;4.75;97.27;98706.02;111416;1266;23146;-73
2023/12/21 04:06:13;;;;;;;;;;;;;;;4.74;97.31;98696.58;111339;1268;23236;-73
2023/12/21 04:09:04;;;;;;;1.10;0.20;;;;;;;4.72;97.39;98689.17;111379;1266;22127;-73
2023/12/21 04:11:54;;;;;;;0.70;0.10;;;;;;;4.72;97.35;98679.69;111400;1268;22114;-72
2023/12/21 04:14:43;;;;;;;;;;;;;;;4.73;97.31;98676.48;111428;1268;22809;-73
2023/12/21 04:17:35;;;;;;;2.50;0.10;;;;;;;4.73;97.22;98675.08;111373;1263;22841;-72
2023/12/21 04:20:26;;;;;;;0.80;0.10;;;;;;;4.73;97.30;98671.61;111484;1266;22151;-72
2023/12/21 04:23:17;;;;;;;2.30;0.20;;;;;;;4.73;97.41;98674.67;111440;1267;22142;-74
2023/12/21 04:26:06;;;;;;;;;;;;;;;4.72;97.31;98674.31;111372;1266;22351;-73
2023/12/21 04:28:56;;;;;;;1.30;0.20;;;;;;;4.72;97.33;98665.46;111397;1268;22148;-74
2023/12/21 04:31:47;;;;;;;0.40;0.00;;;;;;;4.72;97.51;98662.55;111380;1268;22128;-73
2023/12/21 04:34:38;;;;;;;1.40;0.10;;;;;;;4.71;97.43;98657.49;111370;1268;22306;-73
2023/12/21 04:37:29;;;;;;;0.40;0.00;;;;;;;4.70;97.47;98651.70;111376;1261;22194;-75
2023/12/21 04:40:20;;;;;;;0.40;0.00;;;;;;;4.69;97.48;98650.23;111360;1262;22240;-73
2023/12/21 04:43:09;;;;;;;;;;;;;;;4.69;97.58;98651.48;111355;1261;22478;-74
2023/12/21 04:46:00;;;;;;;1.40;0.00;;;;;;;4.68;97.57;98644.38;111587;1267;22930;-74
2023/12/21 04:48:50;;;;;;;0.90;0.10;;;;;;;4.68;97.64;98640.83;111484;1258;22322;-73
2023/12/21 04:51:41;;;;;;;0.60;0.00;;;;;;;4.67;97.72;98629.34;111497;1268;22962;-74
2023/12/21 04:54:32;;;;;;;0.90;0.10;;;;;;;4.67;97.71;98633.25;109803;1268;22543;-73
2023/12/21 04:57:23;;;;;;;0.50;0.10;;;;;;;4.67;97.68;98632.85;109270;1266;22549;-72
2023/12/21 05:00:16;;;;;;;0.80;0.10;;;;;;;4.66;97.85;98622.55;109372;1264;22766;-72
2023/12/21 05:03:07;;;;;;;0.60;0.10;;;;;;;4.65;97.91;98617.95;108931;1261;23923;-71
2023/12/21 05:05:58;;;;;;;0.80;0.10;;;;;;;4.64;97.87;98614.11;108945;1264;24209;-73
2023/12/21 05:08:47;;;;;;;;;;;;;;;4.64;97.99;98612.30;109291;1256;22549;-73
2023/12/21 05:11:38;;;;;;;1.10;0.10;;;;;;;4.63;98.09;98609.34;109337;1266;23373;-73
2023/12/21 05:14:29;;;;;;;0.20;0.00;;;;;;;4.63;98.01;98611.95;109346;1268;22547;-72
2023/12/21 05:17:20;;;;;;;0.40;0.00;;;;;;;4.64;98.06;98612.55;109300;1268;22553;-72
2023/12/21 05:20:14;;;;;;;0.80;0.10;;;;;;;4.62;97.98;98612.39;108098;1255;24186;-74
2023/12/21 05:23:04;;;;;;;0.30;0.00;;;;;;;4.63;98.06;98614.81;110966;1266;22539;-73
2023/12/21 05:25:56;;;;;;;0.20;0.00;;;;;;;4.64;98.06;98614.11;108234;1267;24229;-73
2023/12/21 05:28:47;;;;;;;0.30;0.00;;;;;;;4.64;98.13;98612.67;108210;1266;25509;-73
2023/12/21 05:31:38;;;;;;;1.50;0.10;;;;;;;4.65;98.09;98601.98;107979;1266;22531;-73
2023/12/21 05:34:29;;;;;;;0.60;0.10;;;;;;;4.66;98.04;98609.52;108102;1261;25472;-73
2023/12/21 05:37:19;;;;;;;0.90;0.20;;;;;;;4.65;98.18;98613.09;108028;1261;22533;-74
2023/12/21 05:40:14;;;;;;;0.70;0.10;;;;;;;4.65;98.07;98608.91;108504;1264;23929;-74
2023/12/21 05:43:05;;;;;;;0.70;0.10;;;;;;;4.65;98.18;98612.02;111408;1256;22124;-76
2023/12/21 05:45:56;;;;;;;1.40;0.00;;;;;;;4.66;98.18;98608.87;111451;1257;22211;-73
2023/12/21 05:48:47;;;;;;;1.10;0.10;;;;;;;4.67;98.11;98604.57;111443;1268;22402;-73
2023/12/21 05:51:38;;;;;;;1.90;0.30;;;;;;;4.67;98.03;98606.58;111438;1257;22735;-71
2023/12/21 05:54:30;;;;;;;2.10;0.20;;;;;;;4.69;98.09;98600.11;111591;1263;22099;-73
2023/12/21 05:57:21;;;;;;;1.50;0.20;;;;;;;4.71;98.16;98592.97;111425;1266;23013;-70
2023/12/21 06:00:14;;;;;;;1.30;0.10;;;;;;;4.71;98.01;98590.02;111473;1266;22181;-72
2023/12/21 06:03:05;;;;;;;0.90;0.20;;;;;;;4.71;98.05;98590.11;111443;1269;22220;-72
2023/12/21 06:05:56;;;;;;;0.70;0.10;;;;;;;4.71;98.07;98586.15;111443;1257;22242;-71
2023/12/21 06:08:45;;;;;;;;;;;;;;;4.73;98.02;98585.31;111400;1268;22330;-71
2023/12/21 06:11:35;;;;;;;1.10;0.10;;;;;;;4.74;98.04;98585.07;111397;1262;22228;-74
2023/12/21 06:14:26;;;;;;;2.30;0.10;;;;;;;4.76;97.95;98576.80;111448;1260;22143;-73
2023/12/21 06:17:15;;;;;;;;;;;;;;;4.77;97.89;98577.88;111412;1268;23048;-71
2023/12/21 06:20:08;;;;;;;0.70;0.10;;;;;;;4.77;97.89;98575.66;111404;1268;22127;-72
2023/12/21 06:22:59;;;;;;;1.30;0.10;;;;;;;4.77;97.84;98576.77;111438;1268;22241;-72
2023/12/21 06:25:49;;;;;;;1.40;0.20;;;;;;;4.77;97.76;98572.80;111452;1266;22301;-71
2023/12/21 06:28:41;;;;;;;0.40;0.00;;;;;;;4.78;97.92;98574.16;111425;1266;22979;-72
2023/12/21 06:31:32;;;;;;;1.60;0.20;;;;;;;4.78;97.76;98575.02;111440;1267;22165;-71
2023/12/21 06:34:21;;;;;;;;;;;;;;;4.79;97.86;98574.29;111457;1257;22387;-72
2023/12/21 06:37:12;;;;;;;1.30;0.20;;;;;;;4.78;97.70;98571.06;111426;1261;23058;-72
2023/12/21 06:40:04;;;;;;;;;;;;;;;4.79;97.69;98561.16;111442;1269;22244;-74
2023/12/21 06:42:54;;;;;;;2.30;0.20;;;;;;;4.79;97.61;98561.23;111411;1269;23064;-73
2023/12/21 06:45:47;;;;;;;1.80;0.20;;;;;;;4.80;97.56;98555.77;111417;1269;22159;-72
2023/12/21 06:48:38;;;;;;;2.80;0.30;;;;;;;4.82;97.45;98561.88;111394;1268;22231;-74
2023/12/21 06:51:27;;;;;;;;;;;;;;;4.84;97.35;98559.04;111306;1268;22915;-75
2023/12/21 06:54:18;;;;;;;1.50;0.20;;;;;;;4.85;97.37;98553.98;111394;1267;22123;-74
2023/12/21 06:57:10;;;;;;;1.70;0.20;;;;;;;4.88;97.35;98547.69;111395;1261;22559;-74
2023/12/21 07:00:01;;;;;;;1.60;0.30;;;;;;;4.90;97.28;98545.45;111453;1264;22147;-74
2023/12/21 07:02:52;;;;;;;2.10;0.30;;;;;;;4.92;97.20;98542.10;111447;1267;23140;-74
2023/12/21 07:05:43;;;;;;;2.50;0.40;;;;;;;4.94;97.06;98543.79;111455;1268;22294;-75
2023/12/21 07:08:34;;;;;;;2.70;0.30;;;;;;;4.98;97.04;98549.52;111447;1266;22526;-74
2023/12/21 07:11:25;;;;;;;1.40;0.10;;;;;;;4.99;96.83;98546.52;111504;1266;22367;-75
2023/12/21 07:14:16;;;;;;;4.70;0.30;;;;;;;5.02;96.71;98543.98;111526;1266;22325;-75
2023/12/21 07:17:07;;;;;;;1.00;0.20;;;;;;;5.04;96.82;98541.41;111424;1256;22079;-75
2023/12/21 07:19:58;;;;;;;2.90;0.30;;;;;;;5.07;96.61;98544.82;111444;1257;22161;-75
2023/12/21 07:22:47;;;;;;;;;;;;;;;5.10;96.64;98543.10;111531;1266;23120;-76
2023/12/21 07:25:37;;;;;;;2.90;0.30;;;;;;;5.11;96.52;98540.10;111422;1264;22192;-76
2023/12/21 07:28:30;;;;;;;1.40;0.20;;;;;;;5.15;96.62;98536.34;111435;1267;22153;-75
2023/12/21 07:31:21;;;;;;;4.10;0.50;;;;;;;5.18;96.24;98525.77;111569;1266;22204;-77
2023/12/21 07:34:12;;;;;;;2.90;0.40;;;;;;;5.20;96.29;98525.54;111426;1261;22331;-75
2023/12/21 07:37:03;;;;;;;5.50;0.30;;;;;;;5.24;96.29;98525.88;111463;1268;22144;-75
2023/12/21 07:39:54;;;;;;;2.70;0.30;;;;;;;5.27;96.04;98523.15;111400;1269;22115;-75
2023/12/21 07:42:44;;;;;;;2.10;0.30;;;;;;;5.30;96.02;98513.39;111384;1269;22234;-75
2023/12/21 07:45:35;;;;;;;2.10;0.30;;;;;;;5.34;95.78;98509.21;111399;1268;22228;-77
2023/12/21 07:48:27;;;;;;;2.00;0.40;;;;;;;5.36;95.46;98500.62;111394;1267;22083;-75
2023/12/21 07:51:17;;;;;;;5.40;0.40;;;;;;;5.39;95.53;98493.73;111453;1260;23433;-75
2023/12/21 07:54:08;;;;;;;4.80;0.30;;;;;;;5.43;95.60;98484.66;111414;1267;22160;-75
2023/12/21 07:56:59;;;;;;;1.70;0.20;;;;;;;5.46;95.30;98474.82;111386;1266;22318;-76
2023/12/21 07:59:48;;;;;;;;;;;;;;;5.50;95.10;98459.07;111450;1267;22350;-75
2023/12/21 08:02:44;;;;;;;2.20;0.20;;;;;;;5.52;95.12;98455.38;111527;1266;22195;-74
2023/12/21 08:05:36;;;;;;;0.90;0.20;;;;;;;5.56;95.04;98447.31;111468;1264;22070;-76
2023/12/21 08:08:27;;;;;;;1.60;0.30;;;;;;;5.60;95.06;98445.99;111411;1264;22139;-75
2023/12/21 08:11:18;;;;;;;1.70;0.30;;;;;;;5.65;94.87;98441.82;111418;1264;22338;-76
2023/12/21 08:14:08;;;;;;;1.70;0.30;;;;;;;5.70;94.63;98437.82;111438;1264;22124;-76
2023/12/21 08:17:02;;;;;;;3.90;0.30;;;;;;;5.74;94.54;98437.32;111416;1264;22062;-75
2023/12/21 08:19:55;;;;;;;1.80;0.20;;;;;;;5.78;94.26;98434.08;111368;1261;22852;-77
2023/12/21 08:22:46;;;;;;;2.70;0.20;;;;;;;5.82;94.14;98430.23;111407;1264;22309;-76
2023/12/21 08:25:36;;;;;;;1.80;0.30;;;;;;;5.85;94.40;98426.26;111397;1267;22912;-76
2023/12/21 08:28:29;;;;;;;1.60;0.20;;;;;;;5.88;94.49;98416.25;111424;1260;22286;-76
2023/12/21 08:31:27;;;;;;;3.10;0.30;;;;;;;5.90;94.50;98414.27;111350;1267;23080;-76
2023/12/21 08:34:18;;;;;;;1.60;0.30;;;;;;;5.93;94.78;98410.87;111394;1261;22814;-75
2023/12/21 08:37:06;;;;;;;;;;;;;;;5.96;94.55;98405.77;111473;1260;22227;-75
2023/12/21 08:39:58;;;;;;;1.60;0.20;;;;;;;5.95;94.26;98399.71;111421;1268;22258;-76
2023/12/21 08:42:49;;;;;;;0.80;0.20;;;;;;;5.96;94.43;98394.84;111429;1268;22939;-75
2023/12/21 08:45:40;;;;;;;1.20;0.30;;;;;;;5.97;94.46;98385.42;111418;1254;22146;-76
2023/12/21 08:48:32;;;;;;;0.60;0.20;;;;;;;5.99;94.42;98379.45;111420;1261;22122;-76
2023/12/21 08:51:23;;;;;;;1.00;0.20;;;;;;;6.00;94.35;98379.45;111421;1264;22228;-76
2023/12/21 08:54:14;;;;;;;0.90;0.10;;;;;;;6.03;94.43;98373.37;111383;1260;22169;-76
2023/12/21 08:57:05;;;;;;;1.70;0.20;;;;;;;6.03;94.41;98354.59;111435;1254;22308;-76
2023/12/21 08:59:56;;;;;;;1.30;0.20;;;;;;;6.05;94.62;98347.04;111409;1263;23434;-76
2023/12/21 09:02:47;;;;;;;1.70;0.30;;;;;;;6.05;94.84;98346.89;111382;1261;22831;-75
2023/12/21 09:05:38;;;;;;;1.90;0.30;;;;;;;6.03;95.00;98342.30;111552;1263;22269;-75
2023/12/21 09:08:29;;;;;;;2.00;0.30;;;;;;;6.04;95.10;98333.59;111476;1264;23033;-75
2023/12/21 09:11:18;;;;;;;;;;;;;;;6.06;95.27;98327.41;111454;1254;22305;-76
2023/12/21 09:14:08;;;;;;;1.50;0.20;;;;;;;6.07;95.37;98321.41;111397;1261;23156;-76
2023/12/21 09:16:59;;;;;;;2.90;0.20;;;;;;;6.08;95.38;98302.95;111412;1260;23399;-76
2023/12/21 09:19:50;;;;;;;2.80;0.30;;;;;;;6.10;95.34;98299.23;111431;1268;23286;-76
2023/12/21 09:22:41;;;;;;;2.10;0.30;;;;;;;6.12;95.29;98298.78;111433;1262;22148;-76
2023/12/21 09:25:33;;;;;;;4.50;0.20;;;;;;;6.12;95.30;98289.77;111401;1267;22753;-77
2023/12/21 09:28:23;;;;;;;4.10;0.20;;;;;;;6.16;95.27;98283.34;111417;1267;22352;-75
2023/12/21 09:31:15;;;;;;;0.40;0.10;;;;;;;6.18;95.17;98278.63;111377;1260;23016;-75
2023/12/21 09:34:07;;;;;;;1.80;0.20;;;;;;;6.21;95.17;98264.34;111464;1268;22135;-78
2023/12/21 09:36:58;;;;;;;1.80;0.20;;;;;;;6.24;95.00;98258.25;111291;1266;22885;-75
2023/12/21 09:39:53;;;;;;;0.60;0.20;;;;;;;6.27;94.76;98252.77;108571;1267;22548;-75
2023/12/21 09:42:50;;;;;;;1.70;0.10;;;;;;;6.29;94.51;98246.69;108420;1267;24039;-76
2023/12/21 09:45:43;;;;;;;1.50;0.20;;;;;;;6.29;94.45;98239.43;108374;1250;22580;-77
2023/12/21 09:48:34;;;;;;;2.10;0.20;;;;;;;6.29;94.61;98222.76;111403;1268;22365;-77
2023/12/21 09:51:25;;;;;;;2.40;0.30;;;;;;;6.28;94.47;98216.36;111370;1260;22227;-77
2023/12/21 09:54:17;;;;;;;1.50;0.20;;;;;;;6.28;94.84;98203.30;111374;1260;22154;-77
2023/12/21 09:57:08;;;;;;;1.70;0.20;;;;;;;6.28;95.06;98189.20;111364;1264;22215;-77
2023/12/21 10:00:00;;;;;;;0.70;0.10;;;;;;;6.28;94.87;98176.95;111465;1257;22189;-77
2023/12/21 10:02:51;;;;;;;2.20;0.20;;;;;;;6.28;94.99;98167.84;111457;1264;22147;-77
2023/12/21 10:05:42;;;;;;;2.00;0.30;;;;;;;6.27;94.99;98162.49;111405;1257;22139;-76
2023/12/21 10:08:33;;;;;;;3.40;0.30;;;;;;;6.27;94.83;98154.43;111383;1257;22386;-77
2023/12/21 10:11:24;;;;;;;2.70;0.40;;;;;;;6.26;95.08;98143.05;111393;1264;22163;-77
2023/12/21 10:14:19;;;;;;;3.20;0.50;;;;;;;6.26;95.23;98137.04;111446;1260;22597;-77
2023/12/21 10:17:11;;;;;;;2.00;0.20;;;;;;;6.27;95.31;98131.00;111403;1260;22165;-78
2023/12/21 10:20:03;;;;;;;2.50;0.40;;;;;;;6.26;95.48;98125.47;111401;1264;22223;-77
2023/12/21 10:22:56;;;;;;;0.90;0.20;;;;;;;6.26;95.48;98121.02;111405;1261;22075;-77
2023/12/21 10:25:49;;;;;;;1.90;0.30;;;;;;;6.26;95.57;98110.04;111388;1267;23159;-76
2023/12/21 10:28:42;;;;;;;3.80;0.40;;;;;;;6.24;95.54;98099.55;111377;1263;22216;-77
2023/12/21 10:31:32;;;;;;;1.20;0.20;;;;;;;6.23;95.98;98082.73;111431;1266;23307;-77
2023/12/21 10:34:21;;;;;;;;;;;;;;;6.22;95.74;98069.93;111623;1260;22513;-77
2023/12/21 10:37:12;;;;;;;2.00;0.30;;;;;;;6.20;95.91;98064.54;111422;1260;22250;-77
2023/12/21 10:40:04;;;;;;;4.00;0.50;;;;;;;6.17;95.93;98054.30;111502;1256;22219;-76
2023/12/21 10:42:57;;;;;;;2.40;0.40;;;;;;;6.15;95.90;98043.92;111441;1268;23197;-78
2023/12/21 10:45:49;;;;;;;3.20;0.60;;;;;;;6.14;96.04;98040.61;111443;1268;22308;-78
2023/12/21 10:48:40;;;;;;;2.70;0.50;;;;;;;6.12;96.18;98030.44;111448;1268;22134;-76
2023/12/21 10:51:32;;;;;;;2.20;0.40;;;;;;;6.11;96.12;98017.64;111426;1250;22161;-76
2023/12/21 10:54:24;;;;;;;2.90;0.40;;;;;;;6.08;96.07;98002.13;111465;1266;22363;-76
2023/12/21 10:57:17;;;;;;;9.50;0.90;;;;;;;6.08;96.31;97989.89;111462;1264;22154;-77
2023/12/21 11:00:12;;;;;;;7.10;1.00;;;;;;;6.08;96.45;97982.13;111486;1267;22981;-77
2023/12/21 11:03:06;;;;;;;6.80;0.90;;;;;;;6.08;96.49;97967.38;111488;1256;22368;-77
2023/12/21 11:05:58;;;;;;;7.10;1.10;;;;;;;6.09;96.59;97949.55;111417;1266;22157;-76
2023/12/21 11:10:58;;;;;;;7.70;0.80;;;;;;;6.10;96.49;97937.27;105094;1302;542950;-75
2023/12/21 11:13:52;;;;;;;2.50;0.50;;;;;;;6.10;96.55;97924.61;108609;1271;22555;-75
2023/12/21 11:16:49;;;;;;;2.50;0.40;;;;;;;6.12;96.69;97915.75;108796;1273;22933;-75
2023/12/21 11:19:41;;;;;;;3.30;0.40;;;;;;;6.13;96.47;97909.40;110791;1273;22176;-75
2023/12/21 11:22:33;;;;;;;2.60;0.50;;;;;;;6.15;96.59;97900.43;110727;1267;22175;-76
2023/12/21 11:25:25;;;;;;;1.50;0.30;;;;;;;6.17;96.60;97892.08;110698;1264;168081;-75
2023/12/21 11:28:16;;;;;;;3.50;0.50;;;;;;;6.18;96.50;97878.88;110873;1264;22303;-76
2023/12/21 11:31:15;;;;;;;2.00;0.40;;;;;;;6.19;96.39;97873.58;111091;1271;22245;-76
2023/12/21 11:34:18;;;;;;;2.80;0.30;;;;;;;6.21;96.58;97864.61;111067;1264;22921;-76
2023/12/21 11:37:23;;;;;;;5.50;0.50;;;;;;;6.22;96.54;97856.70;111071;1264;22223;-77
2023/12/21 11:40:17;;;;;;;2.50;0.40;;;;;;;6.24;96.55;97843.55;111079;1263;22317;-76
2023/12/21 11:43:20;;;;;;;3.70;0.50;;;;;;;6.26;96.63;97839.46;111068;1267;22157;-76
2023/12/21 11:46:11;;;;;;;6.10;0.50;;;;;;;6.27;96.62;97831.91;111051;1267;22330;-76
2023/12/21 11:49:02;;;;;;;2.40;0.50;;;;;;;6.28;96.64;97820.86;111052;1272;22249;-76
2023/12/21 11:51:53;;;;;;;3.00;0.50;;;;;;;6.29;96.91;97811.34;111054;1272;22201;-76
2023/12/21 11:54:47;;;;;;;2.70;0.40;;;;;;;6.30;96.96;97791.50;111042;1272;22210;-76
2023/12/21 11:57:40;;;;;;;3.20;0.60;;;;;;;6.30;96.92;97785.70;111037;1272;22142;-78
2023/12/21 12:00:32;;;;;;;3.10;0.50;;;;;;;6.29;96.99;97778.21;111044;1270;22799;-76
2023/12/21 12:03:25;;;;;;;2.80;0.40;;;;;;;6.28;97.20;97776.74;111067;1271;22080;-76
2023/12/21 12:06:16;;;;;;;2.20;0.30;;;;;;;6.27;97.27;97764.96;111058;1269;22324;-77
2023/12/21 12:09:08;;;;;;;2.20;0.40;;;;;;;6.26;97.23;97759.48;110943;1266;22340;-76
2023/12/21 12:12:00;;;;;;;2.70;0.30;;;;;;;6.26;97.44;97755.45;111068;1269;22403;-76
2023/12/21 12:14:51;;;;;;;1.70;0.20;;;;;;;6.26;97.45;97746.23;111047;1260;22147;-77
2023/12/21 12:17:43;;;;;;;2.40;0.30;;;;;;;6.26;97.55;97736.21;111031;1267;22378;-76
2023/12/21 12:20:34;;;;;;;2.40;0.30;;;;;;;6.27;97.60;97725.43;111177;1269;22243;-77
2023/12/21 12:23:25;;;;;;;2.30;0.30;;;;;;;6.27;97.73;97714.29;111129;1263;22351;-76
2023/12/21 12:26:16;;;;;;;3.70;0.40;;;;;;;6.28;97.74;97707.03;111116;1260;22234;-76
2023/12/21 12:29:07;;;;;;;1.30;0.40;;;;;;;6.28;97.65;97695.24;111098;1270;22123;-77
2023/12/21 12:31:58;;;;;;;3.10;0.40;;;;;;;6.28;97.79;97691.63;111078;1266;22165;-77
2023/12/21 12:34:49;;;;;;;7.90;1.20;;;;;;;6.28;97.77;97680.43;111092;1257;22209;-76
2023/12/21 12:37:40;;;;;;;3.80;0.50;;;;;;;6.28;97.98;97673.02;111060;1266;22054;-77
2023/12/21 12:40:31;;;;;;;3.20;0.40;;;;;;;6.29;98.07;97663.80;111567;1261;22340;-76
2023/12/21 12:43:22;;;;;;;2.20;0.30;;;;;;;6.30;97.96;97654.32;111528;1257;22090;-76
2023/12/21 12:46:12;;;;;;;;;;;;;;;6.29;98.06;97640.58;111468;1260;22379;-76
2023/12/21 12:49:02;;;;;;;1.80;0.30;;;;;;;6.28;98.06;97628.09;111428;1268;22165;-76
2023/12/21 12:51:56;;;;;;;2.80;0.40;;;;;;;6.29;98.26;97622.10;111456;1268;22169;-76
2023/12/21 12:54:48;;;;;;;2.10;0.30;;;;;;;6.28;98.18;97608.99;111447;1269;23009;-75
2023/12/21 12:57:39;;;;;;;4.60;0.60;;;;;;;6.29;98.19;97601.59;111429;1269;22195;-75
2023/12/21 13:00:29;;;;;;;2.40;0.40;;;;;;;6.30;98.09;97588.08;111391;1260;22381;-76
2023/12/21 13:03:20;;;;;;;3.00;0.40;;;;;;;6.29;98.27;97575.89;111529;1262;22074;-77
2023/12/21 13:06:10;;;;;;;4.40;0.50;;;;;;;6.29;98.19;97565.71;111536;1266;22362;-76
2023/12/21 13:09:02;;;;;;;6.90;0.50;;;;;;;6.29;98.22;97551.13;111531;1267;22079;-76
2023/12/21 13:11:53;;;;;;;2.50;0.50;;;;;;;6.28;98.21;97542.51;111495;1263;22175;-75
2023/12/21 13:14:44;;;;;;;2.20;0.30;;;;;;;6.28;98.05;97533.69;111483;1266;23195;-75
2023/12/21 13:17:35;;;;;;;2.00;0.30;;;;;;;6.29;98.29;97528.29;111457;1268;23078;-75
2023/12/21 13:20:26;;;;;;;1.20;0.20;;;;;;;6.30;98.28;97519.02;111406;1264;22917;-76
2023/12/21 13:23:17;;;;;;;1.50;0.40;;;;;;;6.31;98.16;97512.61;111482;1267;22086;-75
2023/12/21 13:26:09;;;;;;;1.10;0.20;;;;;;;6.31;98.01;97502.94;111511;1266;23096;-76
2023/12/21 13:29:00;;;;;;;1.90;0.30;;;;;;;6.31;97.97;97502.27;111439;1268;22213;-75
2023/12/21 13:31:51;;;;;;;3.80;0.40;;;;;;;6.32;97.87;97491.55;111551;1264;22124;-75
2023/12/21 13:34:43;;;;;;;2.80;0.20;;;;;;;6.33;97.84;97485.40;111576;1266;22880;-76